Aérodrome :
LOGIN :

S'inscrire | Disclaimer

   EN    FR    IT 

 










Légende :    VFR   VFR Marginal   IFR   IFR Intensif   IFR Très Intensif
Visi : 
Plafond : 
>= 8 km
>= 3000ft
5 à 8 km
1000 à 3000 ft
1500m à 5 km
500 à 1000 ft
800 à 1500m
200 à 500 ft
< 800m
< 200 ft
Symboles :   Orages  Brouillard  Fortes neiges  Fortes précipitations  Vent > 20 kt
SIGMETs :   Divers  Orages  Givrage  Turbulence  Onde Orograph.  Cendres Volcan.






- Altitude de l'aérodrome : 584 ft


LFPV - Villacoublay Vélizy

DERNIER METAR :
  • 280800Z AUTO 32012KT 290V350 9999 OVC013 04/02 Q1001 NOSIG

METARs EXPIRÉS :
  • 280730Z AUTO 32013G23KT 300V360 9999 OVC014 04/02 Q1000 BECMG 26015KT
  • 280700Z AUTO 32017KT 9999 OVC012/// ///TCU 04/02 Q1000 BECMG 26015KT OVC013
  • 280630Z AUTO 31015KT 290V350 9999 -DZ OVC009/// ///TCU 04/02 Q0999 BECMG OVC013
  • 280600Z AUTO 31014KT 9999 OVC009/// ///TCU 04/03 Q0999 BECMG OVC013
  • 280530Z AUTO 31015KT 9999 -RA OVC009 04/03 Q0999 BECMG OVC013

TAF TAF LFPV
Valide du 28 à 03h jusqu'au 29 à 03h UTC


280200Z 2803/2903 26015KT 9999 OVC013 TX04/2814Z TN03/2804Z
BECMG 2811/2813 BKN025 SCT040TCU
BECMG 2817/2818 32008KT



MET'MAP, la Météo Aéronautique d'un coup d'oeil ! - Copyright ORBIFLY Décembre 2007 - Disclaimer

ORBIFLY MET'MAP TEAM :

Programmation & Développement : Alexandra Zaïnal
Sur une idée originale de : Baudouin d'Aumeries
Assistance à la programmation : Marc-Olivier Méhu
Soutien technique & logistique : Manuel Goepfert

Contact : metmap@orbifly.com




SOURCES & CREDITS :

   NOAA